Time;durP1;ratioP1;P1;durP2;ratioP2;P2;SDS_P1;SDS_P2;PMS_P1;PMS_P2;Temp;Humidity;BMP_temperature;BMP_pressure;BME280_temperature;BME280_humidity;BME280_pressure;Samples;Min_cycle;Max_cycle;Signal;HPM_P1;HPM_P2
2022/06/28 00:01:59;;;;;;;2.13;0.50;;;19.10;73.20;;;;;;5033798;28;20457;-61
2022/06/28 00:04:26;;;;;;;1.98;0.70;;;19.00;73.20;;;;;;5033063;28;20056;-63
2022/06/28 00:06:54;;;;;;;2.30;0.57;;;19.00;73.10;;;;;;5036056;28;21167;-63
2022/06/28 00:09:22;;;;;;;1.25;0.40;;;18.90;72.90;;;;;;5038165;28;20060;-61
2022/06/28 00:11:50;;;;;;;3.10;0.93;;;18.90;73.00;;;;;;5036828;28;20048;-63
2022/06/28 00:17:03;;;;;;;2.88;0.60;;;18.80;72.90;;;;;;5037816;28;20057;-61
2022/06/28 00:19:30;;;;;;;1.33;0.50;;;18.80;73.00;;;;;;5037827;28;20084;-62
2022/06/28 00:21:57;;;;;;;2.75;0.50;;;18.70;73.10;;;;;;5031141;28;20499;-62
2022/06/28 00:24:24;;;;;;;1.15;0.55;;;18.60;73.20;;;;;;5036624;28;20069;-61
2022/06/28 00:26:52;;;;;;;2.15;0.85;;;18.60;73.60;;;;;;5037289;28;20041;-61
2022/06/28 00:29:19;;;;;;;1.65;0.50;;;18.60;73.80;;;;;;5033838;28;20057;-61
2022/06/28 00:31:46;;;;;;;1.90;0.55;;;18.50;74.00;;;;;;5037559;28;20073;-62
2022/06/28 00:34:14;;;;;;;1.67;0.75;;;18.60;74.20;;;;;;5038993;28;20056;-61
2022/06/28 00:36:41;;;;;;;1.58;0.80;;;18.60;74.10;;;;;;5035086;28;20045;-61
2022/06/28 00:39:08;;;;;;;2.20;0.50;;;18.60;74.10;;;;;;5037969;28;20049;-60
2022/06/28 00:41:35;;;;;;;0.90;0.50;;;18.60;74.40;;;;;;5035186;28;20041;-59
2022/06/28 00:44:04;;;;;;;4.75;0.60;;;18.60;74.70;;;;;;5035876;28;20081;-62
2022/06/28 00:46:33;;;;;;;1.83;0.70;;;18.50;75.00;;;;;;5031220;28;20041;-62
2022/06/28 00:49:00;;;;;;;1.15;0.50;;;18.50;75.10;;;;;;5048915;28;20041;-63
2022/06/28 00:51:29;;;;;;;2.28;0.57;;;18.40;75.40;;;;;;5038452;28;20063;-61
2022/06/28 00:53:56;;;;;;;2.65;0.63;;;18.30;75.70;;;;;;5036864;28;20041;-63
2022/06/28 00:56:24;;;;;;;1.45;0.73;;;18.30;75.80;;;;;;5036542;28;20049;-61
2022/06/28 00:58:55;;;;;;;0.70;0.45;;;18.20;76.10;;;;;;5036911;28;20041;-62
2022/06/28 01:01:23;;;;;;;1.08;0.60;;;18.20;76.20;;;;;;5036419;28;20077;-61
2022/06/28 01:03:52;;;;;;;4.30;0.52;;;18.10;76.30;;;;;;5038067;28;20107;-62
2022/06/28 01:06:19;;;;;;;1.80;0.73;;;18.10;76.30;;;;;;5030093;28;20057;-64
2022/06/28 01:08:47;;;;;;;0.95;0.50;;;18.00;76.40;;;;;;5033651;28;20049;-63
2022/06/28 01:11:20;;;;;;;2.05;0.60;;;17.90;76.60;;;;;;5034451;28;20081;-65
2022/06/28 01:13:54;;;;;;;1.70;0.63;;;17.90;76.70;;;;;;5036098;28;20048;-61
2022/06/28 01:16:23;;;;;;;1.77;0.63;;;17.80;76.80;;;;;;5037475;28;20041;-62
2022/06/28 01:18:54;;;;;;;1.48;0.90;;;17.70;77.00;;;;;;5055661;28;20045;-62
2022/06/28 01:21:37;;;;;;;0.77;0.50;;;17.70;76.90;;;;;;5054900;28;20040;-61
2022/06/28 01:24:08;;;;;;;0.90;0.60;;;17.70;76.80;;;;;;5058482;28;20049;-61
2022/06/28 01:27:02;;;;;;;1.08;0.60;;;17.70;76.80;;;;;;5043472;28;20402;-62
2022/06/28 01:29:30;;;;;;;2.03;0.63;;;17.70;76.70;;;;;;5032769;28;20534;-64
2022/06/28 01:32:06;;;;;;;2.55;0.63;;;17.70;76.80;;;;;;5058904;28;20128;-62
2022/06/28 01:34:34;;;;;;;1.60;0.70;;;17.70;76.70;;;;;;5058036;28;20044;-60
2022/06/28 01:37:02;;;;;;;1.30;0.63;;;17.60;76.70;;;;;;5048184;28;20128;-63
2022/06/28 01:39:32;;;;;;;1.60;0.70;;;17.60;76.80;;;;;;5052341;28;20045;-62
2022/06/28 01:42:00;;;;;;;1.80;0.65;;;17.50;77.00;;;;;;5037493;28;20702;-62
2022/06/28 01:44:30;;;;;;;0.70;0.43;;;17.40;77.10;;;;;;5038396;28;20057;-61
2022/06/28 01:47:06;;;;;;;1.77;0.65;;;17.30;77.20;;;;;;5055618;28;20141;-62
2022/06/28 01:50:07;;;;;;;2.65;0.70;;;17.30;77.40;;;;;;5029890;28;20495;-63
2022/06/28 01:52:43;;;;;;;2.20;0.65;;;17.30;77.40;;;;;;5054761;28;20051;-62
2022/06/28 01:55:41;;;;;;;0.77;0.50;;;17.20;77.50;;;;;;5038720;28;20140;-61
2022/06/28 01:58:20;;;;;;;1.42;0.70;;;17.20;77.60;;;;;;5020794;28;20076;-61
2022/06/28 02:00:49;;;;;;;1.95;0.70;;;17.10;77.60;;;;;;5030217;28;20135;-60
2022/06/28 02:03:16;;;;;;;1.85;0.65;;;17.10;77.60;;;;;;5058950;28;20148;-62
2022/06/28 02:05:52;;;;;;;1.08;0.60;;;17.10;77.30;;;;;;5037734;28;20484;-62
2022/06/28 02:08:20;;;;;;;0.70;0.50;;;17.10;77.20;;;;;;5039435;28;20071;-60
2022/06/28 02:10:59;;;;;;;1.45;0.75;;;17.10;77.30;;;;;;5040820;28;20044;-60
2022/06/28 02:13:33;;;;;;;1.65;0.60;;;17.10;77.10;;;;;;5026816;28;20041;-62
2022/06/28 02:16:02;;;;;;;3.35;0.90;;;17.00;77.20;;;;;;5032215;28;20449;-61
2022/06/28 02:18:32;;;;;;;1.13;0.52;;;17.00;77.20;;;;;;5038808;28;20081;-61
2022/06/28 02:21:02;;;;;;;1.25;0.70;;;16.90;77.10;;;;;;5013759;28;20516;-62
2022/06/28 02:23:29;;;;;;;1.45;0.50;;;16.90;77.40;;;;;;5051714;28;20050;-62
2022/06/28 02:25:56;;;;;;;1.10;0.60;;;16.90;77.40;;;;;;5003963;28;20050;-62
2022/06/28 02:28:25;;;;;;;1.38;0.85;;;16.80;77.40;;;;;;5020497;28;20427;-60
2022/06/28 02:30:54;;;;;;;3.05;0.80;;;16.70;77.50;;;;;;5027777;28;20124;-62
2022/06/28 02:33:21;;;;;;;1.10;0.60;;;16.70;77.50;;;;;;5039283;28;20059;-61
2022/06/28 02:41:22;;;;;;;3.28;0.60;;;16.60;77.80;;;;;;5055328;28;20443;-61
2022/06/28 02:43:51;;;;;;;1.30;0.82;;;16.60;77.90;;;;;;5041445;28;20053;-62
2022/06/28 02:46:18;;;;;;;1.73;0.80;;;16.50;77.90;;;;;;5038163;28;20139;-61
2022/06/28 02:48:45;;;;;;;6.03;0.95;;;16.40;78.00;;;;;;5036073;28;20049;-61
2022/06/28 02:51:12;;;;;;;4.15;0.60;;;16.40;78.20;;;;;;5034782;28;20045;-65
2022/06/28 02:53:39;;;;;;;1.85;0.82;;;16.40;78.10;;;;;;5048162;28;20164;-61
2022/06/28 02:56:06;;;;;;;1.85;1.00;;;16.40;78.20;;;;;;5025351;28;20037;-62
2022/06/28 02:58:33;;;;;;;9.60;1.13;;;16.40;78.20;;;;;;5035009;28;20053;-60
2022/06/28 03:01:02;;;;;;;2.25;0.70;;;16.40;78.20;;;;;;5031386;28;20071;-63
2022/06/28 03:03:29;;;;;;;2.58;0.93;;;16.30;78.20;;;;;;5038273;28;20051;-61
2022/06/28 03:05:57;;;;;;;1.30;0.60;;;16.30;78.10;;;;;;5034221;28;20211;-64
2022/06/28 03:08:25;;;;;;;1.60;0.82;;;16.30;78.20;;;;;;5025630;28;20102;-62
2022/06/28 03:10:53;;;;;;;2.97;0.75;;;16.20;78.10;;;;;;5029335;28;20067;-63
2022/06/28 03:13:20;;;;;;;1.90;0.73;;;16.20;78.10;;;;;;5018069;28;20059;-62
2022/06/28 03:15:47;;;;;;;1.98;0.80;;;16.20;78.20;;;;;;5025683;28;20049;-62
2022/06/28 03:18:16;;;;;;;3.42;0.90;;;16.20;78.30;;;;;;5022016;28;20049;-63
2022/06/28 03:20:44;;;;;;;6.18;0.88;;;16.10;78.30;;;;;;5022756;28;20557;-63
2022/06/28 03:23:11;;;;;;;4.95;0.70;;;16.20;78.20;;;;;;5027249;28;20068;-63
2022/06/28 03:25:39;;;;;;;2.63;0.70;;;16.10;78.00;;;;;;5040985;28;20203;-60
2022/06/28 03:28:06;;;;;;;2.95;0.80;;;16.10;78.00;;;;;;5025169;28;20059;-63
2022/06/28 03:30:33;;;;;;;1.73;0.70;;;16.10;78.10;;;;;;5037385;28;20037;-62
2022/06/28 03:33:01;;;;;;;4.32;0.80;;;16.00;78.10;;;;;;5025462;28;20057;-62
2022/06/28 03:35:34;;;;;;;5.30;0.77;;;16.00;78.20;;;;;;5042797;28;20060;-62
2022/06/28 03:38:01;;;;;;;3.13;0.70;;;16.00;78.20;;;;;;5027108;28;20120;-62
2022/06/28 03:40:49;;;;;;;0.82;0.63;;;15.90;78.30;;;;;;5050940;28;20152;-62
2022/06/28 03:43:17;;;;;;;2.03;0.85;;;15.90;78.20;;;;;;5034313;28;20049;-62
2022/06/28 03:45:44;;;;;;;2.35;0.68;;;15.80;78.20;;;;;;5026706;28;20044;-62
2022/06/28 03:48:29;;;;;;;0.88;0.50;;;15.80;78.30;;;;;;5052887;28;20897;-61
2022/06/28 03:51:20;;;;;;;;;;;15.90;78.10;;;;;;5017217;28;20060;-62
2022/06/28 03:54:11;;;;;;;1.50;0.50;;;15.80;78.00;;;;;;5043366;28;19929;-63
2022/06/28 03:56:44;;;;;;;1.00;0.60;;;15.90;77.90;;;;;;5037405;28;20041;-61
2022/06/28 03:59:12;;;;;;;1.98;0.77;;;15.80;78.10;;;;;;5025417;28;20049;-62
2022/06/28 04:01:39;;;;;;;1.48;0.57;;;15.80;78.10;;;;;;5023094;28;20143;-61
2022/06/28 04:04:06;;;;;;;2.67;0.73;;;15.80;78.20;;;;;;5010380;28;20045;-62
2022/06/28 04:06:37;;;;;;;2.20;0.60;;;15.70;78.20;;;;;;5026181;28;20045;-63
2022/06/28 04:09:04;;;;;;;1.95;1.10;;;15.70;78.30;;;;;;5033079;28;20058;-63
2022/06/28 04:11:31;;;;;;;4.68;0.73;;;15.70;78.30;;;;;;5027145;28;20047;-60
2022/06/28 04:13:58;;;;;;;2.35;0.55;;;15.70;78.40;;;;;;5026283;28;20048;-63
2022/06/28 04:16:25;;;;;;;3.03;1.00;;;15.70;78.50;;;;;;5024287;28;20053;-63
2022/06/28 04:18:57;;;;;;;1.65;0.77;;;15.70;78.60;;;;;;5026812;28;20041;-62
2022/06/28 04:21:26;;;;;;;1.75;0.68;;;15.70;78.70;;;;;;5028341;28;20066;-62
2022/06/28 04:24:05;;;;;;;2.85;0.68;;;15.70;78.80;;;;;;5041766;28;20072;-62
2022/06/28 04:26:32;;;;;;;1.73;0.70;;;15.70;79.00;;;;;;5043681;28;20059;-64
2022/06/28 04:28:59;;;;;;;1.98;0.82;;;15.70;78.90;;;;;;5022916;28;20455;-62
2022/06/28 04:31:29;;;;;;;2.17;0.80;;;15.90;78.70;;;;;;5052987;28;20526;-60
2022/06/28 04:33:56;;;;;;;1.27;0.70;;;15.90;78.60;;;;;;5050597;28;20048;-63
2022/06/28 04:36:27;;;;;;;3.00;0.90;;;15.90;78.70;;;;;;5034791;28;20060;-62
2022/06/28 04:38:54;;;;;;;3.85;0.90;;;15.80;78.70;;;;;;5051129;28;20052;-62
2022/06/28 04:41:26;;;;;;;2.67;0.80;;;15.80;78.90;;;;;;5030053;28;20081;-65
2022/06/28 04:43:58;;;;;;;5.93;0.80;;;15.90;78.70;;;;;;5032138;28;20056;-62
2022/06/28 04:46:30;;;;;;;3.63;1.63;;;15.90;78.20;;;;;;5011957;28;20058;-63
2022/06/28 04:49:00;;;;;;;;;;;16.00;78.20;;;;;;5030810;28;20061;-63
2022/06/28 04:51:36;;;;;;;1.92;0.82;;;16.00;78.20;;;;;;5030595;28;19929;-60
2022/06/28 04:54:03;;;;;;;1.83;1.13;;;16.00;78.10;;;;;;5026518;28;20049;-62
2022/06/28 04:56:37;;;;;;;3.38;0.93;;;16.10;78.10;;;;;;5027286;28;20041;-62
2022/06/28 04:59:05;;;;;;;2.42;0.90;;;16.10;77.80;;;;;;5043472;28;20056;-61
2022/06/28 05:01:32;;;;;;;4.68;0.93;;;16.00;78.10;;;;;;5031382;28;20052;-66
2022/06/28 05:03:59;;;;;;;1.23;0.80;;;16.00;78.40;;;;;;5020745;28;20779;-60
2022/06/28 05:06:46;;;;;;;2.45;1.15;;;16.00;78.40;;;;;;5023620;28;20068;-63
2022/06/28 05:09:13;;;;;;;3.03;1.08;;;16.10;78.40;;;;;;5027316;28;20057;-63
2022/06/28 05:11:41;;;;;;;3.83;1.05;;;16.10;78.20;;;;;;5035991;28;20049;-62
2022/06/28 05:14:16;;;;;;;2.30;1.05;;;16.10;78.50;;;;;;5029214;28;20056;-62
2022/06/28 05:16:45;;;;;;;3.38;1.00;;;16.10;78.50;;;;;;5039648;28;20056;-61
2022/06/28 05:19:12;;;;;;;1.77;0.85;;;16.20;78.50;;;;;;5037535;28;20103;-62
2022/06/28 05:21:40;;;;;;;2.35;1.10;;;16.20;78.60;;;;;;5033253;28;20103;-62
2022/06/28 05:24:07;;;;;;;3.15;1.40;;;16.20;78.70;;;;;;5016494;28;20146;-62
2022/06/28 05:26:42;;;;;;;2.40;1.30;;;16.20;78.70;;;;;;5030527;28;20136;-62
2022/06/28 05:29:15;;;;;;;5.90;1.40;;;16.20;79.10;;;;;;5054786;28;20054;-61
2022/06/28 05:31:42;;;;;;;3.33;1.50;;;16.10;79.30;;;;;;5034088;28;20489;-62
2022/06/28 05:34:09;;;;;;;1.98;0.90;;;16.10;79.10;;;;;;5054249;28;20041;-61
2022/06/28 05:36:37;;;;;;;2.08;0.85;;;16.10;79.40;;;;;;5054003;28;20061;-61
2022/06/28 05:39:04;;;;;;;2.35;1.00;;;16.10;79.70;;;;;;5038441;28;20616;-61
2022/06/28 05:41:32;;;;;;;3.30;1.05;;;16.10;79.70;;;;;;5027448;28;20065;-63
2022/06/28 05:44:01;;;;;;;1.75;1.08;;;16.10;79.80;;;;;;5035542;28;20132;-61
2022/06/28 05:46:29;;;;;;;2.40;1.13;;;16.20;79.60;;;;;;5026735;28;20068;-63
2022/06/28 05:48:56;;;;;;;2.50;1.33;;;16.20;79.70;;;;;;5024786;28;20110;-63
2022/06/28 05:51:23;;;;;;;4.40;1.55;;;16.20;79.60;;;;;;5024232;28;20414;-62
2022/06/28 05:53:50;;;;;;;4.85;2.03;;;16.30;79.60;;;;;;5044692;28;20060;-63
2022/06/28 05:56:17;;;;;;;3.45;1.65;;;16.30;79.60;;;;;;5015864;28;20053;-60
2022/06/28 05:58:44;;;;;;;5.55;1.90;;;16.30;79.80;;;;;;5028435;28;20605;-62
2022/06/28 06:01:12;;;;;;;4.47;1.70;;;16.30;79.80;;;;;;5028392;28;20057;-63
2022/06/28 06:03:39;;;;;;;5.18;2.20;;;16.30;79.70;;;;;;5027299;28;20064;-61
2022/06/28 06:06:07;;;;;;;2.75;1.40;;;16.30;79.70;;;;;;5026375;28;20053;-63
2022/06/28 06:08:35;;;;;;;5.10;1.40;;;16.40;79.60;;;;;;5039758;28;20198;-62
2022/06/28 06:11:07;;;;;;;4.20;1.77;;;16.40;79.70;;;;;;5040811;28;20086;-62
2022/06/28 06:13:34;;;;;;;6.57;1.67;;;16.40;79.60;;;;;;5027567;28;20078;-62
2022/06/28 06:16:01;;;;;;;3.50;1.70;;;16.40;79.70;;;;;;5039118;28;20403;-62
2022/06/28 06:18:30;;;;;;;4.13;1.70;;;16.40;79.60;;;;;;5031830;28;20048;-63
2022/06/28 06:20:57;;;;;;;5.50;1.60;;;16.50;79.30;;;;;;5024826;28;20042;-63
2022/06/28 06:23:26;;;;;;;5.90;1.80;;;16.60;79.20;;;;;;5019046;28;20069;-61
2022/06/28 06:26:05;;;;;;;2.22;1.02;;;16.60;79.10;;;;;;5025079;28;20041;-63
2022/06/28 06:28:35;;;;;;;1.77;1.10;;;16.70;79.00;;;;;;5036566;28;20049;-63
2022/06/28 06:31:02;;;;;;;5.93;1.40;;;16.80;78.60;;;;;;5017952;28;20072;-61
2022/06/28 06:33:56;;;;;;;4.35;1.13;;;16.90;78.10;;;;;;5022669;28;20057;-63
2022/06/28 06:36:37;;;;;;;2.95;1.23;;;17.10;77.40;;;;;;4999899;28;20053;-63
2022/06/28 06:39:07;;;;;;;2.90;1.48;;;17.30;77.40;;;;;;5020187;28;20073;-63
2022/06/28 06:41:34;;;;;;;2.22;0.98;;;17.40;76.40;;;;;;5024755;28;20072;-63
2022/06/28 06:44:02;;;;;;;4.57;1.10;;;17.50;76.30;;;;;;5023835;28;20427;-61
2022/06/28 06:46:33;;;;;;;3.25;1.27;;;17.60;75.40;;;;;;5037944;28;20045;-62
2022/06/28 06:49:02;;;;;;;2.97;0.93;;;17.70;75.00;;;;;;5024506;28;20068;-61
2022/06/28 06:51:30;;;;;;;2.38;0.98;;;17.90;75.20;;;;;;5021504;28;20053;-63
2022/06/28 06:53:58;;;;;;;1.45;0.82;;;18.10;74.50;;;;;;5032579;28;20116;-60
2022/06/28 06:56:25;;;;;;;1.63;0.77;;;18.20;73.10;;;;;;5055630;28;20485;-61
2022/06/28 06:58:52;;;;;;;3.22;1.00;;;18.40;72.30;;;;;;5031832;28;20491;-62
2022/06/28 07:01:19;;;;;;;1.70;0.70;;;18.50;72.50;;;;;;5034075;28;20056;-62
2022/06/28 07:03:46;;;;;;;3.40;0.82;;;18.60;73.30;;;;;;5025868;28;20136;-61
2022/06/28 07:06:15;;;;;;;1.00;0.70;;;18.80;73.20;;;;;;5028449;28;20147;-62
2022/06/28 07:08:42;;;;;;;1.38;0.80;;;19.00;71.60;;;;;;5037618;28;20054;-63
2022/06/28 07:11:12;;;;;;;1.52;0.80;;;19.10;71.60;;;;;;5017118;28;20045;-62
2022/06/28 07:13:39;;;;;;;0.65;0.43;;;19.30;71.00;;;;;;5029924;28;20052;-60
2022/06/28 07:16:07;;;;;;;3.38;1.00;;;19.40;70.90;;;;;;5034680;28;20057;-62
2022/06/28 07:18:34;;;;;;;1.85;0.70;;;19.60;69.40;;;;;;5034135;28;20131;-62
2022/06/28 07:21:01;;;;;;;1.35;0.63;;;19.70;69.70;;;;;;5040343;28;20123;-64
2022/06/28 07:23:31;;;;;;;2.42;0.90;;;19.90;69.50;;;;;;5049071;28;20053;-60
2022/06/28 07:25:58;;;;;;;2.03;0.60;;;20.10;68.80;;;;;;5015727;28;20045;-63
2022/06/28 07:28:25;;;;;;;3.88;0.65;;;20.20;68.30;;;;;;5027285;28;20175;-62
2022/06/28 07:30:52;;;;;;;1.35;0.50;;;20.30;68.50;;;;;;5045531;28;20104;-61
2022/06/28 07:33:19;;;;;;;1.55;0.60;;;20.40;67.00;;;;;;5029740;28;20055;-62
2022/06/28 07:35:46;;;;;;;1.65;0.50;;;20.50;66.60;;;;;;5020192;28;20062;-62
2022/06/28 07:38:14;;;;;;;1.30;0.40;;;20.70;66.80;;;;;;5026894;28;20051;-64
2022/06/28 07:41:01;;;;;;;1.20;0.68;;;20.80;65.50;;;;;;5042507;28;20497;-62
2022/06/28 07:43:51;;;;;;;2.05;0.47;;;20.90;64.60;;;;;;4994989;28;20140;-61
2022/06/28 07:46:22;;;;;;;2.95;0.60;;;21.10;64.80;;;;;;5013460;28;20104;-61
2022/06/28 07:48:50;;;;;;;1.80;0.60;;;21.20;64.30;;;;;;5011798;28;20067;-64
2022/06/28 07:54:02;;;;;;;1.20;0.40;;;21.60;63.60;;;;;;5050995;28;20046;-65
2022/06/28 07:57:00;;;;;;;1.13;0.43;;;21.70;62.90;;;;;;4975813;28;20038;-63
2022/06/28 07:59:28;;;;;;;3.03;0.57;;;21.80;62.20;;;;;;5005089;28;20059;-62
2022/06/28 08:01:55;;;;;;;1.90;0.45;;;22.00;60.10;;;;;;5011999;28;20057;-67
2022/06/28 08:04:28;;;;;;;1.35;0.70;;;22.10;59.80;;;;;;5008836;28;20064;-68
2022/06/28 08:06:56;;;;;;;1.23;0.50;;;22.30;59.30;;;;;;5017046;28;20040;-67
2022/06/28 08:09:24;;;;;;;0.87;0.40;;;22.50;58.20;;;;;;5013576;28;20049;-68
2022/06/28 08:11:52;;;;;;;2.08;0.50;;;22.60;58.40;;;;;;5010699;28;20444;-68
2022/06/28 08:14:21;;;;;;;1.10;0.40;;;22.70;56.80;;;;;;5017864;28;20073;-68
2022/06/28 08:16:48;;;;;;;0.80;0.40;;;22.70;57.50;;;;;;5047407;28;20100;-68
2022/06/28 08:19:15;;;;;;;1.38;0.40;;;22.80;57.60;;;;;;5049376;28;20149;-67
2022/06/28 08:21:45;;;;;;;0.88;0.50;;;22.90;56.30;;;;;;5053231;28;20036;-67
2022/06/28 08:24:12;;;;;;;0.90;0.40;;;23.00;56.90;;;;;;5020665;28;20049;-66
2022/06/28 08:26:42;;;;;;;0.77;0.43;;;23.20;57.10;;;;;;5046083;28;20522;-67
2022/06/28 08:29:09;;;;;;;0.70;0.40;;;23.30;55.70;;;;;;5034229;28;20851;-67
2022/06/28 08:31:38;;;;;;;0.85;0.40;;;23.40;55.10;;;;;;5029884;28;20063;-68
2022/06/28 08:34:05;;;;;;;1.83;0.63;;;23.50;55.90;;;;;;5036255;28;20145;-68
2022/06/28 08:36:32;;;;;;;5.20;0.93;;;23.60;54.10;;;;;;5020589;28;20045;-70
2022/06/28 08:38:59;;;;;;;5.15;2.53;;;23.60;54.50;;;;;;5026678;28;20049;-66
2022/06/28 08:41:28;;;;;;;7.22;3.13;;;23.80;54.20;;;;;;5019389;28;20050;-68
2022/06/28 08:43:56;;;;;;;3.80;1.60;;;23.90;53.90;;;;;;5024855;28;20052;-67
2022/06/28 08:46:24;;;;;;;7.53;2.53;;;24.00;54.00;;;;;;5025129;28;20038;-67
2022/06/28 08:48:55;;;;;;;5.63;2.55;;;24.10;52.80;;;;;;5021224;28;20072;-69
2022/06/28 08:51:30;;;;;;;3.30;1.00;;;24.10;51.60;;;;;;5024168;28;20045;-67
2022/06/28 08:54:00;;;;;;;3.35;1.00;;;24.20;51.40;;;;;;5027313;28;20176;-66
2022/06/28 08:56:28;;;;;;;4.05;1.40;;;24.30;51.80;;;;;;5026121;28;20041;-68
2022/06/28 08:58:57;;;;;;;2.92;1.05;;;24.40;51.80;;;;;;5024042;28;20048;-67
2022/06/28 09:01:24;;;;;;;2.50;0.80;;;24.50;51.00;;;;;;5025465;28;20046;-66
2022/06/28 09:03:54;;;;;;;1.15;0.50;;;24.50;50.60;;;;;;5025799;28;20037;-66
2022/06/28 09:06:22;;;;;;;2.28;0.65;;;24.60;49.50;;;;;;5026141;28;20037;-65
2022/06/28 09:08:49;;;;;;;3.55;1.65;;;24.70;49.60;;;;;;5023872;28;20051;-67
2022/06/28 09:11:16;;;;;;;4.88;2.30;;;24.80;49.90;;;;;;5026435;28;20473;-66
2022/06/28 09:13:43;;;;;;;6.45;2.75;;;25.00;50.50;;;;;;5025428;28;20779;-66
2022/06/28 09:16:11;;;;;;;6.70;2.88;;;25.10;49.80;;;;;;5028656;28;20057;-67
2022/06/28 09:18:47;;;;;;;5.85;2.08;;;25.20;49.60;;;;;;5025327;28;20475;-66
2022/06/28 09:21:17;;;;;;;68.55;59.28;;;25.30;49.20;;;;;;5024764;28;20051;-66
2022/06/28 09:23:46;;;;;;;25.52;21.83;;;25.30;47.20;;;;;;5026858;28;20140;-65
2022/06/28 09:26:15;;;;;;;14.50;11.20;;;25.40;48.00;;;;;;5014215;28;20486;-66
2022/06/28 09:28:44;;;;;;;18.27;14.20;;;25.50;48.10;;;;;;5024877;28;20494;-65
2022/06/28 09:31:22;;;;;;;7.68;5.97;;;25.60;48.20;;;;;;5025336;28;20046;-66
2022/06/28 09:34:03;;;;;;;6.53;3.85;;;25.70;47.10;;;;;;5025555;28;21017;-67
2022/06/28 09:36:32;;;;;;;3.88;2.28;;;25.80;47.50;;;;;;5040190;28;20046;-67
2022/06/28 09:39:11;;;;;;;3.53;1.60;;;25.90;47.10;;;;;;5028480;28;20051;-66
2022/06/28 09:41:37;;;;;;;1.88;1.30;;;25.90;47.40;;;;;;5024549;28;20068;-65
2022/06/28 09:44:04;;;;;;;3.17;1.67;;;26.00;47.10;;;;;;5026985;28;20553;-67
2022/06/28 09:46:33;;;;;;;2.90;0.90;;;26.10;46.20;;;;;;5025565;28;20064;-66
2022/06/28 09:49:01;;;;;;;1.83;0.85;;;26.10;45.40;;;;;;5025286;28;20044;-69
2022/06/28 09:51:32;;;;;;;3.43;1.20;;;26.20;46.20;;;;;;5027605;28;20049;-67
2022/06/28 09:54:01;;;;;;;5.90;2.38;;;26.30;45.60;;;;;;5025400;28;20305;-68
2022/06/28 09:56:31;;;;;;;4.38;2.17;;;26.40;45.70;;;;;;5032588;28;20041;-66
2022/06/28 09:58:59;;;;;;;4.43;1.85;;;26.50;45.30;;;;;;5037183;28;20041;-70
2022/06/28 10:01:26;;;;;;;2.60;1.17;;;26.50;45.40;;;;;;5039164;28;20053;-67
2022/06/28 10:03:54;;;;;;;3.25;1.33;;;26.50;44.90;;;;;;5054687;28;20056;-68
2022/06/28 10:06:22;;;;;;;8.13;4.40;;;26.50;44.00;;;;;;5031994;28;20132;-68
2022/06/28 10:08:51;;;;;;;9.55;4.13;;;26.60;43.70;;;;;;5035901;28;20049;-67
2022/06/28 10:11:19;;;;;;;7.20;3.50;;;26.60;44.10;;;;;;5026705;28;20628;-68
2022/06/28 10:16:46;;;;;;;9.88;4.55;;;26.80;43.50;;;;;;5027621;28;21833;-68
2022/06/28 10:19:17;;;;;;;7.30;4.18;;;26.90;43.60;;;;;;5028554;28;20430;-67
2022/06/28 10:21:46;;;;;;;4.47;2.10;;;27.00;42.80;;;;;;5027252;28;20060;-67
2022/06/28 10:24:14;;;;;;;4.10;1.40;;;27.00;42.40;;;;;;5026955;28;20060;-67
2022/06/28 10:26:45;;;;;;;5.32;2.20;;;27.10;41.20;;;;;;5022350;28;20049;-66
2022/06/28 10:29:12;;;;;;;3.78;1.50;;;27.10;42.20;;;;;;5041489;28;20070;-66
2022/06/28 10:31:41;;;;;;;3.28;1.63;;;27.20;42.70;;;;;;5030334;28;20052;-66
2022/06/28 10:34:10;;;;;;;;;;;27.20;41.90;;;;;;5030858;28;20045;-69
2022/06/28 10:36:49;;;;;;;3.63;1.85;;;27.30;42.30;;;;;;5027723;28;19998;-68
2022/06/28 10:39:21;;;;;;;4.40;2.00;;;27.30;42.10;;;;;;5028542;28;20048;-68
2022/06/28 10:41:49;;;;;;;3.35;1.25;;;27.30;41.10;;;;;;5026904;28;20041;-66
2022/06/28 10:44:18;;;;;;;1.65;0.90;;;27.40;41.50;;;;;;5025622;28;20050;-69
2022/06/28 10:46:49;;;;;;;;;;;27.50;41.50;;;;;;5025347;28;20509;-67
2022/06/28 10:49:16;;;;;;;5.38;0.90;;;27.50;41.40;;;;;;5022807;28;20396;-68
2022/06/28 10:52:14;;;;;;;1.58;0.73;;;27.50;41.50;;;;;;5028640;28;20041;-68
2022/06/28 10:55:04;;;;;;;3.72;1.02;;;27.60;41.50;;;;;;5026635;28;20057;-68
2022/06/28 10:57:36;;;;;;;3.45;1.70;;;27.70;41.80;;;;;;5038242;28;20054;-66
2022/06/28 11:00:06;;;;;;;4.88;2.08;;;27.80;41.60;;;;;;5038422;28;20045;-66
2022/06/28 11:02:47;;;;;;;3.80;1.58;;;27.90;40.60;;;;;;5013118;28;20049;-66
2022/06/28 11:05:14;;;;;;;4.97;1.30;;;27.90;40.60;;;;;;5027173;28;20741;-67
2022/06/28 11:07:44;;;;;;;2.20;1.25;;;27.90;40.30;;;;;;5024191;28;20041;-66
2022/06/28 11:10:16;;;;;;;2.50;1.10;;;28.00;40.50;;;;;;5026258;28;20095;-68
2022/06/28 11:12:44;;;;;;;3.80;1.27;;;28.00;40.90;;;;;;5029852;28;20133;-67
2022/06/28 11:15:13;;;;;;;4.20;1.60;;;28.10;40.10;;;;;;5030390;28;20049;-68
2022/06/28 11:17:44;;;;;;;3.63;1.60;;;28.20;40.10;;;;;;5033690;28;20100;-67
2022/06/28 11:20:12;;;;;;;;;;;28.10;40.10;;;;;;5031133;28;20133;-66
2022/06/28 11:22:41;;;;;;;2.17;0.90;;;28.20;40.20;;;;;;5036873;28;19974;-66
2022/06/28 11:25:10;;;;;;;1.67;0.80;;;28.10;40.00;;;;;;5029348;28;20053;-67
2022/06/28 11:27:43;;;;;;;2.42;0.75;;;28.20;39.80;;;;;;5034510;28;20045;-68
2022/06/28 11:30:11;;;;;;;6.32;3.58;;;28.20;39.50;;;;;;5036732;28;20451;-65
2022/06/28 11:32:40;;;;;;;6.00;2.80;;;28.30;39.50;;;;;;5036475;28;20137;-68
2022/06/28 11:35:09;;;;;;;4.28;1.20;;;28.30;39.30;;;;;;5038381;28;20527;-67
2022/06/28 11:37:48;;;;;;;2.47;1.20;;;28.40;37.90;;;;;;5037614;28;20057;-67
2022/06/28 11:40:16;;;;;;;1.13;0.43;;;28.30;38.00;;;;;;5029407;28;20041;-67
2022/06/28 11:42:44;;;;;;;2.47;0.60;;;28.40;37.30;;;;;;5035570;28;20045;-67
2022/06/28 11:45:13;;;;;;;2.03;0.90;;;28.40;37.00;;;;;;5038430;28;20055;-68
2022/06/28 11:47:42;;;;;;;1.33;0.70;;;28.40;36.80;;;;;;5035212;28;20072;-68
2022/06/28 11:50:12;;;;;;;1.35;0.70;;;28.50;36.80;;;;;;5037400;28;20049;-66
2022/06/28 11:52:47;;;;;;;2.53;0.70;;;28.50;37.30;;;;;;5034539;28;20380;-67
2022/06/28 11:55:14;;;;;;;4.07;0.75;;;28.50;36.90;;;;;;5038564;28;20049;-67
2022/06/28 11:57:41;;;;;;;10.48;4.18;;;28.50;36.70;;;;;;5036609;28;20041;-65
2022/06/28 12:00:10;;;;;;;8.48;4.03;;;28.60;36.30;;;;;;5035422;28;20403;-67
2022/06/28 12:02:42;;;;;;;4.75;1.65;;;28.60;36.40;;;;;;5054567;28;20056;-67
2022/06/28 12:05:10;;;;;;;3.05;1.30;;;28.50;36.30;;;;;;5037043;28;20468;-66
2022/06/28 12:07:38;;;;;;;2.63;1.10;;;28.60;36.70;;;;;;5037329;28;20486;-67
2022/06/28 12:10:10;;;;;;;2.53;1.00;;;28.60;37.20;;;;;;5039219;28;20060;-69
2022/06/28 12:12:43;;;;;;;2.33;1.00;;;28.60;37.80;;;;;;5038596;28;20498;-67
2022/06/28 12:15:11;;;;;;;1.38;0.50;;;28.60;37.40;;;;;;5037491;28;20053;-64
2022/06/28 12:17:46;;;;;;;1.90;0.65;;;28.60;37.60;;;;;;5038792;28;20064;-65
2022/06/28 12:20:15;;;;;;;2.15;0.80;;;28.60;37.80;;;;;;5038155;28;20111;-66
2022/06/28 12:22:42;;;;;;;1.60;0.60;;;28.60;37.80;;;;;;5037606;28;20046;-67
2022/06/28 12:25:10;;;;;;;3.47;1.60;;;28.60;38.00;;;;;;5034212;28;20398;-66
2022/06/28 12:27:37;;;;;;;2.38;1.50;;;28.60;37.60;;;;;;5036063;28;20057;-67
2022/06/28 12:30:06;;;;;;;2.22;0.90;;;28.60;37.10;;;;;;5035600;28;20053;-67
2022/06/28 12:32:35;;;;;;;2.42;0.70;;;28.50;37.10;;;;;;5037779;28;20905;-67
2022/06/28 12:35:04;;;;;;;1.50;0.60;;;28.50;38.00;;;;;;5037568;28;20049;-67
2022/06/28 12:37:31;;;;;;;;;;;28.50;38.00;;;;;;5038596;28;20160;-67
2022/06/28 12:39:58;;;;;;;2.03;0.70;;;28.50;38.20;;;;;;5044917;28;19936;-65
2022/06/28 12:42:27;;;;;;;3.28;1.45;;;28.60;38.70;;;;;;5037997;28;20529;-66
2022/06/28 12:44:55;;;;;;;2.80;1.10;;;28.50;37.20;;;;;;5036046;28;20103;-65
2022/06/28 12:47:22;;;;;;;3.28;0.98;;;28.60;38.10;;;;;;5045965;28;20049;-66
2022/06/28 12:49:50;;;;;;;1.55;0.68;;;28.50;37.50;;;;;;5032077;28;20143;-67
2022/06/28 12:52:17;;;;;;;3.28;0.80;;;28.50;37.50;;;;;;5036925;28;20053;-68
2022/06/28 12:54:44;;;;;;;1.75;0.60;;;28.50;37.10;;;;;;5036405;28;20045;-68
2022/06/28 12:57:11;;;;;;;1.35;0.45;;;28.40;37.30;;;;;;5037087;28;20041;-66
2022/06/28 12:59:38;;;;;;;3.58;0.65;;;28.40;36.60;;;;;;5053029;28;20053;-66
2022/06/28 13:02:05;;;;;;;2.03;0.40;;;28.30;36.50;;;;;;5042123;28;20148;-65
2022/06/28 13:04:33;;;;;;;1.40;0.60;;;28.30;36.50;;;;;;5034413;28;20128;-67
2022/06/28 13:07:01;;;;;;;1.38;0.57;;;28.30;36.50;;;;;;5037041;28;20045;-66
2022/06/28 13:09:29;;;;;;;1.42;0.60;;;28.30;36.50;;;;;;5030113;28;20048;-66
2022/06/28 13:11:56;;;;;;;1.45;0.70;;;28.30;36.50;;;;;;5024051;28;20072;-66
2022/06/28 13:14:23;;;;;;;3.08;0.77;;;28.30;36.50;;;;;;5025829;28;20049;-66
2022/06/28 13:16:50;;;;;;;3.30;0.90;;;28.30;36.50;;;;;;5024602;28;20064;-67